Time;durP1;ratioP1;P1;durP2;ratioP2;P2;SDS_P1;SDS_P2;PMS_P1;PMS_P2;Temp;Humidity;BMP_temperature;BMP_pressure;BME280_temperature;BME280_humidity;BME280_pressure;Samples;Min_cycle;Max_cycle;Signal;HPM_P1;HPM_P2
2021/05/05 00:00:24;;;;;;;0.30;0.30;;;;;;;5.45;89.00;97615.38;5064503;28;20052;-67
2021/05/05 00:02:50;;;;;;;0.60;0.60;;;;;;;5.45;88.72;97617.94;5064691;28;20025;-66
2021/05/05 00:05:15;;;;;;;0.30;0.30;;;;;;;5.53;88.56;97621.97;5064503;28;20063;-67
2021/05/05 00:07:42;;;;;;;0.60;0.60;;;;;;;5.42;88.61;97620.63;5063050;28;20481;-66
2021/05/05 00:10:08;;;;;;;0.30;0.30;;;;;;;5.42;88.77;97614.63;5064305;28;20028;-67
2021/05/05 00:12:35;;;;;;;2.10;1.95;;;;;;;5.36;88.93;97607.97;5064399;28;20021;-67
2021/05/05 00:15:01;;;;;;;0.30;0.30;;;;;;;5.40;89.05;97614.66;5064694;28;20024;-67
2021/05/05 00:17:26;;;;;;;0.28;0.28;;;;;;;5.42;89.12;97610.31;5064125;28;20480;-66
2021/05/05 00:19:51;;;;;;;0.40;0.40;;;;;;;5.44;88.90;97618.84;5064366;28;20017;-66
2021/05/05 00:22:17;;;;;;;0.30;0.30;;;;;;;5.42;88.90;97609.47;5064139;28;20519;-67
2021/05/05 00:24:42;;;;;;;0.30;0.30;;;;;;;5.39;88.94;97610.44;5064227;28;20381;-66
2021/05/05 00:27:08;;;;;;;0.30;0.30;;;;;;;5.35;89.00;97602.84;5063811;28;20251;-66
2021/05/05 00:29:33;;;;;;;0.30;0.30;;;;;;;5.42;89.05;97606.91;5064209;28;20021;-66
2021/05/05 00:31:59;;;;;;;0.57;0.57;;;;;;;5.41;89.10;97606.09;5064100;28;20517;-66
2021/05/05 00:34:24;;;;;;;0.30;0.30;;;;;;;5.43;88.59;97600.88;5064108;28;20043;-66
2021/05/05 00:36:49;;;;;;;0.30;0.30;;;;;;;5.42;89.22;97600.03;5063788;28;20025;-66
2021/05/05 00:39:15;;;;;;;0.30;0.30;;;;;;;5.44;89.31;97598.25;5063807;28;20031;-66
2021/05/05 00:41:40;;;;;;;0.30;0.30;;;;;;;5.43;89.25;97601.72;5063691;28;20025;-65
2021/05/05 00:44:06;;;;;;;0.30;0.30;;;;;;;5.41;89.24;97595.78;5063809;28;20028;-65
2021/05/05 00:46:31;;;;;;;0.30;0.30;;;;;;;5.39;89.21;97594.13;5063687;28;20017;-65
2021/05/05 00:48:56;;;;;;;0.30;0.30;;;;;;;5.42;89.02;97599.19;5064016;28;20021;-65
2021/05/05 00:51:22;;;;;;;0.30;0.30;;;;;;;5.39;89.11;97594.13;5063495;28;20036;-65
2021/05/05 00:53:48;;;;;;;0.30;0.30;;;;;;;5.37;89.30;97594.19;5063585;28;20025;-65
2021/05/05 00:56:13;;;;;;;0.28;0.28;;;;;;;5.34;89.07;97589.16;5063160;28;20047;-65
2021/05/05 00:58:39;;;;;;;0.30;0.30;;;;;;;5.32;89.24;97596.06;5062936;28;20033;-64
2021/05/05 01:01:04;;;;;;;0.30;0.30;;;;;;;5.27;89.31;97585.09;5063264;28;20104;-64
2021/05/05 01:03:30;;;;;;;0.30;0.30;;;;;;;5.32;89.25;97589.19;5063578;28;20516;-65
2021/05/05 01:05:55;;;;;;;0.30;0.30;;;;;;;5.30;89.32;97583.25;5063804;28;20045;-65
2021/05/05 01:08:22;;;;;;;0.30;0.30;;;;;;;5.31;89.47;97581.53;5063326;28;20021;-65
2021/05/05 01:10:49;;;;;;;0.30;0.30;;;;;;;5.32;89.43;97585.78;5062009;28;20432;-62
2021/05/05 01:13:15;;;;;;;0.30;0.30;;;;;;;5.29;89.36;97575.59;5063541;28;20032;-64
2021/05/05 01:15:41;;;;;;;0.40;0.40;;;;;;;5.32;89.43;97580.63;5063406;28;20145;-63
2021/05/05 01:18:07;;;;;;;0.40;0.40;;;;;;;5.28;89.50;97577.34;5063156;28;20060;-64
2021/05/05 01:20:32;;;;;;;0.30;0.30;;;;;;;5.27;89.28;97575.63;5063394;28;20021;-64
2021/05/05 01:22:58;;;;;;;0.38;0.38;;;;;;;5.27;89.11;97577.38;5063295;28;20531;-64
2021/05/05 01:25:24;;;;;;;0.30;0.30;;;;;;;5.22;89.05;97572.41;5062783;28;20035;-63
2021/05/05 01:27:49;;;;;;;0.30;0.30;;;;;;;5.18;89.41;97575.94;5063242;28;20029;-64
2021/05/05 01:30:17;;;;;;;0.30;0.30;;;;;;;5.17;89.29;97574.25;5063174;28;20398;-64
2021/05/05 01:32:43;;;;;;;0.30;0.30;;;;;;;5.12;89.36;97574.41;5063150;28;20021;-64
2021/05/05 01:35:11;;;;;;;0.30;0.30;;;;;;;5.12;89.29;97571.00;5063202;28;20028;-64
2021/05/05 01:37:37;;;;;;;0.30;0.30;;;;;;;5.11;89.53;97575.31;5063202;28;20025;-64
2021/05/05 01:40:04;;;;;;;0.30;0.30;;;;;;;5.08;89.52;97563.38;5062480;28;20521;-64
2021/05/05 01:42:29;;;;;;;0.30;0.30;;;;;;;5.07;89.33;97571.13;5062069;28;20017;-64
2021/05/05 01:44:55;;;;;;;0.30;0.30;;;;;;;5.06;89.73;97567.72;5062999;28;20017;-64
2021/05/05 01:47:20;;;;;;;0.30;0.30;;;;;;;5.05;89.64;97567.78;5061632;28;20025;-64
2021/05/05 01:49:47;;;;;;;0.30;0.30;;;;;;;5.00;89.52;97559.38;5063157;28;20020;-64
2021/05/05 01:52:14;;;;;;;0.40;0.40;;;;;;;5.00;89.53;97555.06;5063130;28;20047;-64
2021/05/05 01:54:40;;;;;;;0.30;0.30;;;;;;;5.05;89.54;97566.03;5062962;28;20048;-64
2021/05/05 01:57:39;;;;;;;0.30;0.30;;;;;;;4.99;89.51;97555.97;5062782;28;20048;-64
2021/05/05 02:00:26;;;;;;;0.30;0.30;;;;;;;4.95;89.44;97550.06;5058545;28;20049;-64
2021/05/05 02:02:51;;;;;;;0.30;0.30;;;;;;;4.92;89.61;97557.06;5063109;28;20036;-65
2021/05/05 02:05:17;;;;;;;1.05;1.05;;;;;;;4.88;89.77;97545.16;5062849;28;20013;-65
2021/05/05 02:07:43;;;;;;;0.30;0.30;;;;;;;4.90;89.74;97546.81;5062736;28;20048;-64
2021/05/05 02:10:12;;;;;;;0.30;0.30;;;;;;;4.94;89.74;97553.53;5063032;28;20025;-65
2021/05/05 02:12:37;;;;;;;0.30;0.30;;;;;;;4.95;89.65;97547.50;5066680;28;20021;-64
2021/05/05 02:15:08;;;;;;;0.30;0.30;;;;;;;4.96;89.73;97544.06;5066673;28;20024;-64
2021/05/05 02:17:34;;;;;;;0.30;0.30;;;;;;;4.94;89.67;97540.69;5066420;28;20041;-65
2021/05/05 02:19:59;;;;;;;0.30;0.30;;;;;;;4.96;89.55;97541.47;5066366;28;20052;-65
2021/05/05 02:22:24;;;;;;;0.30;0.30;;;;;;;4.92;89.68;97539.88;5066496;28;20449;-65
2021/05/05 02:24:50;;;;;;;0.28;0.28;;;;;;;4.93;89.67;97536.44;5066414;28;20017;-65
2021/05/05 02:27:15;;;;;;;0.30;0.30;;;;;;;4.99;89.57;97545.69;5066195;28;20021;-65
2021/05/05 02:29:41;;;;;;;0.30;0.30;;;;;;;4.91;89.38;97530.50;5066459;28;20033;-64
2021/05/05 02:32:23;;;;;;;0.30;0.30;;;;;;;4.89;89.45;97537.41;5066499;28;20063;-65
2021/05/05 02:34:49;;;;;;;0.30;0.30;;;;;;;4.87;89.54;97528.91;5066311;28;20033;-65
2021/05/05 02:37:14;;;;;;;0.30;0.30;;;;;;;4.84;89.77;97529.84;5066145;28;20092;-65
2021/05/05 02:39:41;;;;;;;0.30;0.30;;;;;;;4.86;89.77;97529.78;5066280;28;20043;-64
2021/05/05 02:42:09;;;;;;;0.22;0.22;;;;;;;4.88;89.62;97538.31;5066046;28;20469;-65
2021/05/05 02:44:36;;;;;;;0.30;0.30;;;;;;;4.87;89.54;97531.50;5064792;28;20056;-65
2021/05/05 02:47:02;;;;;;;0.30;0.30;;;;;;;4.84;89.69;97529.00;5066061;28;20143;-65
2021/05/05 02:49:29;;;;;;;0.30;0.30;;;;;;;4.80;89.71;97514.56;5065909;28;20021;-64
2021/05/05 02:51:54;;;;;;;0.30;0.30;;;;;;;4.83;89.90;97520.47;5066146;28;20031;-65
2021/05/05 02:54:20;;;;;;;0.30;0.30;;;;;;;4.85;89.61;97528.13;5066022;28;20060;-64
2021/05/05 02:56:45;;;;;;;0.30;0.30;;;;;;;4.81;89.73;97518.81;5065461;28;20021;-65
2021/05/05 02:59:10;;;;;;;0.35;0.35;;;;;;;4.80;89.71;97517.13;5065756;28;20045;-65
2021/05/05 03:01:36;;;;;;;0.30;0.30;;;;;;;4.78;89.75;97521.47;5065803;28;20037;-65
2021/05/05 03:04:02;;;;;;;0.30;0.30;;;;;;;4.72;89.84;97522.53;5065739;28;20025;-65
2021/05/05 03:06:29;;;;;;;0.30;0.30;;;;;;;4.70;90.21;97509.72;5065608;28;20040;-65
2021/05/05 03:08:55;;;;;;;0.30;0.30;;;;;;;4.69;89.90;97508.03;5065598;28;20021;-65
2021/05/05 03:11:20;;;;;;;0.30;0.30;;;;;;;4.70;89.91;97509.72;5065262;28;20063;-65
2021/05/05 03:13:45;;;;;;;0.30;0.30;;;;;;;4.71;89.95;97506.25;5065774;28;20112;-65
2021/05/05 03:16:11;;;;;;;0.30;0.30;;;;;;;4.71;89.92;97508.00;5065426;28;20025;-64
2021/05/05 03:18:36;;;;;;;0.40;0.40;;;;;;;4.73;89.95;97501.06;5065419;28;20096;-64
2021/05/05 03:21:01;;;;;;;0.50;0.50;;;;;;;4.71;89.99;97497.72;5065579;28;20457;-65
2021/05/05 03:23:29;;;;;;;0.30;0.30;;;;;;;4.71;90.00;97503.69;5063151;28;20021;-64
2021/05/05 03:25:54;;;;;;;0.30;0.30;;;;;;;4.72;89.87;97496.81;5065378;28;20028;-64
2021/05/05 03:28:20;;;;;;;0.30;0.30;;;;;;;4.70;89.89;97499.44;5065120;28;20032;-65
2021/05/05 03:30:45;;;;;;;0.30;0.30;;;;;;;4.71;90.04;97497.72;5065014;28;20382;-64
2021/05/05 03:33:11;;;;;;;0.30;0.30;;;;;;;4.69;89.79;97494.34;5065222;28;20063;-65
2021/05/05 03:35:36;;;;;;;0.30;0.30;;;;;;;4.69;89.92;97500.34;5065176;28;20079;-64
2021/05/05 03:38:02;;;;;;;0.30;0.30;;;;;;;4.68;89.96;97501.22;5065067;28;20025;-65
2021/05/05 03:40:28;;;;;;;0.30;0.30;;;;;;;4.67;90.03;97504.69;5064641;28;20035;-64
2021/05/05 03:42:55;;;;;;;0.30;0.30;;;;;;;4.66;90.00;97495.28;5064695;28;20029;-63
2021/05/05 03:45:20;;;;;;;0.30;0.30;;;;;;;4.65;89.78;97493.59;5064709;28;20025;-65
2021/05/05 03:47:45;;;;;;;0.30;0.30;;;;;;;4.64;89.97;97502.19;5064714;28;20017;-64
2021/05/05 03:50:11;;;;;;;0.30;0.30;;;;;;;4.65;89.94;97495.34;5063873;28;20028;-64
2021/05/05 03:52:36;;;;;;;0.30;0.30;;;;;;;4.65;89.90;97495.34;5063853;28;20028;-64
2021/05/05 03:55:03;;;;;;;0.30;0.30;;;;;;;4.73;89.65;97498.50;5063660;28;20020;-65
2021/05/05 03:57:29;;;;;;;0.30;0.30;;;;;;;4.67;89.82;97499.53;5063925;28;20476;-64
2021/05/05 03:59:54;;;;;;;0.30;0.30;;;;;;;4.65;89.85;97503.06;5064342;28;20459;-64
2021/05/05 04:02:19;;;;;;;0.30;0.30;;;;;;;4.65;89.98;97497.91;5064527;28;20036;-64
2021/05/05 04:04:45;;;;;;;1.95;1.85;;;;;;;4.64;89.80;97498.78;5064378;28;20021;-64
2021/05/05 04:07:10;;;;;;;0.35;0.35;;;;;;;4.66;89.99;97504.72;5064492;28;20083;-65
2021/05/05 04:09:36;;;;;;;0.30;0.30;;;;;;;4.68;90.01;97510.66;5064461;28;20017;-64
2021/05/05 04:12:03;;;;;;;0.30;0.30;;;;;;;4.65;89.94;97506.44;5064014;28;20079;-65
2021/05/05 04:14:29;;;;;;;0.30;0.30;;;;;;;4.67;90.10;97504.69;5064349;28;20099;-65
2021/05/05 04:16:55;;;;;;;0.40;0.40;;;;;;;4.71;90.13;97500.28;5064095;28;20040;-63
2021/05/05 04:19:20;;;;;;;0.30;0.30;;;;;;;4.70;90.13;97494.31;5064182;28;20017;-63
2021/05/05 04:21:46;;;;;;;0.30;0.30;;;;;;;4.71;90.11;97501.09;5064186;28;20025;-65
2021/05/05 04:24:12;;;;;;;0.30;0.30;;;;;;;4.70;89.93;97488.31;5064029;28;20025;-64
2021/05/05 04:26:37;;;;;;;0.30;0.30;;;;;;;4.75;89.92;97490.72;5063673;28;20024;-65
2021/05/05 04:29:03;;;;;;;0.30;0.30;;;;;;;4.73;90.07;97490.78;5063813;28;20051;-65
2021/05/05 04:31:30;;;;;;;0.30;0.30;;;;;;;4.75;89.99;97496.72;5063545;28;20477;-65
2021/05/05 04:33:55;;;;;;;0.40;0.40;;;;;;;4.70;89.96;97484.03;5063912;28;20132;-66
2021/05/05 04:36:20;;;;;;;0.30;0.30;;;;;;;4.77;90.12;97494.94;5063789;28;20477;-67
2021/05/05 04:38:46;;;;;;;0.30;0.30;;;;;;;4.78;90.13;97506.06;5063820;28;20024;-66
2021/05/05 04:41:12;;;;;;;0.30;0.30;;;;;;;4.75;90.14;97501.88;5063466;28;20029;-64
2021/05/05 04:43:37;;;;;;;0.30;0.30;;;;;;;4.77;90.28;97505.22;5063940;28;20068;-66
2021/05/05 04:46:02;;;;;;;0.30;0.30;;;;;;;4.81;90.14;97504.22;5063741;28;20442;-64
2021/05/05 04:48:29;;;;;;;0.30;0.30;;;;;;;4.79;89.94;97500.88;5063478;28;20035;-65
2021/05/05 04:50:54;;;;;;;0.30;0.30;;;;;;;4.75;89.92;97501.00;5063616;28;20021;-66
2021/05/05 04:53:25;;;;;;;0.30;0.30;;;;;;;4.77;90.15;97510.38;5063649;28;20021;-65
2021/05/05 04:55:51;;;;;;;0.35;0.35;;;;;;;4.77;90.12;97502.66;5063548;28;20013;-68
2021/05/05 04:58:17;;;;;;;0.30;0.30;;;;;;;4.88;89.76;97502.31;5078683;28;20100;-66
2021/05/05 05:00:43;;;;;;;0.30;0.30;;;;;;;4.83;90.00;97507.59;5063715;28;20108;-69
2021/05/05 05:03:08;;;;;;;0.20;0.20;;;;;;;4.87;89.88;97504.94;5063880;28;20017;-68
2021/05/05 05:05:33;;;;;;;0.30;0.30;;;;;;;4.88;89.93;97507.47;5063738;28;20092;-69
2021/05/05 05:07:59;;;;;;;0.30;0.30;;;;;;;4.87;90.13;97513.50;5063665;28;20551;-67
2021/05/05 05:10:24;;;;;;;0.30;0.30;;;;;;;4.87;90.06;97502.38;5063110;28;20024;-63
2021/05/05 05:12:50;;;;;;;0.30;0.30;;;;;;;4.96;90.01;97507.22;5063353;28;20025;-63
2021/05/05 05:15:15;;;;;;;1.60;1.52;;;;;;;4.95;90.03;97496.06;5063473;28;20074;-67
2021/05/05 05:17:41;;;;;;;0.30;0.30;;;;;;;4.95;90.03;97492.69;5063571;28;20036;-67
2021/05/05 05:20:09;;;;;;;0.30;0.30;;;;;;;5.07;90.25;97494.00;5063114;28;20028;-64
2021/05/05 05:22:35;;;;;;;0.30;0.30;;;;;;;5.11;90.25;97498.16;5061836;28;20032;-64
2021/05/05 05:25:05;;;;;;;0.30;0.30;;;;;;;5.12;89.80;97494.69;5062639;28;20026;-65
2021/05/05 05:27:31;;;;;;;0.22;0.22;;;;;;;5.08;89.76;97499.09;5062828;28;20025;-66
2021/05/05 05:29:57;;;;;;;0.30;0.30;;;;;;;5.22;89.40;97500.38;5061915;28;20019;-65
2021/05/05 05:32:23;;;;;;;0.30;0.30;;;;;;;5.18;89.68;97498.78;5063084;28;20036;-64
2021/05/05 05:34:48;;;;;;;0.20;0.20;;;;;;;5.17;89.68;97499.69;5063083;28;20017;-65
2021/05/05 05:37:13;;;;;;;0.30;0.30;;;;;;;5.20;89.80;97503.00;5063180;28;20025;-64
2021/05/05 05:39:39;;;;;;;0.30;0.30;;;;;;;5.21;89.86;97502.09;5062494;28;20502;-64
2021/05/05 05:42:04;;;;;;;0.32;0.32;;;;;;;5.23;89.74;97499.47;5061967;28;20036;-65
2021/05/05 05:44:30;;;;;;;0.30;0.30;;;;;;;5.26;90.05;97506.22;5063081;28;20017;-65
2021/05/05 05:46:55;;;;;;;0.20;0.20;;;;;;;5.30;90.14;97500.13;5066244;28;20024;-65
2021/05/05 05:49:20;;;;;;;0.30;0.30;;;;;;;5.38;90.05;97507.56;5067157;28;20714;-64
2021/05/05 05:51:46;;;;;;;0.30;0.30;;;;;;;5.42;89.99;97502.25;5066883;28;20036;-63
2021/05/05 05:54:11;;;;;;;0.30;0.30;;;;;;;5.40;90.02;97504.03;5066942;28;20047;-64
2021/05/05 05:56:37;;;;;;;0.28;0.28;;;;;;;5.43;89.98;97503.09;5066982;28;20309;-64
2021/05/05 05:59:02;;;;;;;0.32;0.32;;;;;;;5.46;90.15;97498.69;5066532;28;20041;-65
2021/05/05 06:01:27;;;;;;;0.30;0.30;;;;;;;5.47;90.08;97502.09;5066824;28;20095;-63
2021/05/05 06:03:53;;;;;;;0.35;0.35;;;;;;;5.53;90.04;97501.03;5066671;28;20048;-63
2021/05/05 06:06:19;;;;;;;0.30;0.30;;;;;;;5.60;89.79;97504.25;5066503;28;20021;-63
2021/05/05 06:08:46;;;;;;;0.30;0.30;;;;;;;5.64;89.93;97496.34;5065982;28;20029;-66
2021/05/05 06:11:11;;;;;;;0.25;0.25;;;;;;;5.69;90.06;97509.91;5066415;28;20044;-66
2021/05/05 06:13:37;;;;;;;0.30;0.30;;;;;;;5.75;89.93;97508.84;5066666;28;20496;-64
2021/05/05 06:16:02;;;;;;;0.30;0.30;;;;;;;5.78;89.95;97500.19;5065771;28;20029;-64
2021/05/05 06:18:28;;;;;;;0.30;0.30;;;;;;;5.85;90.00;97504.22;5066341;28;20025;-65
2021/05/05 06:20:53;;;;;;;0.30;0.30;;;;;;;5.93;90.04;97502.19;5066466;28;20029;-65
2021/05/05 06:23:19;;;;;;;0.30;0.30;;;;;;;6.04;89.93;97500.97;5066107;28;20024;-65
2021/05/05 06:25:44;;;;;;;0.30;0.30;;;;;;;6.10;89.92;97508.50;5066024;28;20025;-66
2021/05/05 06:28:09;;;;;;;0.32;0.32;;;;;;;6.17;90.04;97509.94;5066196;28;20021;-66
2021/05/05 06:30:35;;;;;;;0.30;0.30;;;;;;;6.25;89.91;97506.25;5065039;28;20017;-65
2021/05/05 06:33:00;;;;;;;0.30;0.30;;;;;;;6.30;89.55;97505.19;5066047;28;20444;-66
2021/05/05 06:35:26;;;;;;;0.30;0.30;;;;;;;6.34;89.72;97511.06;5065822;28;20112;-66
2021/05/05 06:37:51;;;;;;;0.30;0.30;;;;;;;6.45;89.82;97514.06;5065791;28;20029;-65
2021/05/05 06:40:17;;;;;;;0.28;0.28;;;;;;;6.51;89.42;97505.25;5065852;28;20074;-66
2021/05/05 06:42:43;;;;;;;0.30;0.30;;;;;;;6.57;89.53;97505.03;5065615;28;20048;-65
2021/05/05 06:45:09;;;;;;;0.30;0.30;;;;;;;6.66;89.66;97508.97;5065692;28;20112;-67
2021/05/05 06:47:35;;;;;;;0.30;0.30;;;;;;;6.76;89.62;97511.19;5065706;28;20029;-67
2021/05/05 06:50:00;;;;;;;0.30;0.30;;;;;;;6.86;89.84;97516.81;5066052;28;20021;-67
2021/05/05 06:52:26;;;;;;;0.30;0.30;;;;;;;6.97;89.36;97516.38;5066175;28;20013;-68
2021/05/05 06:54:52;;;;;;;0.30;0.30;;;;;;;7.09;89.65;97515.91;5065842;28;20047;-69
2021/05/05 06:57:17;;;;;;;0.30;0.30;;;;;;;7.23;89.53;97504.16;5065332;28;20504;-70
2021/05/05 06:59:42;;;;;;;0.30;0.30;;;;;;;7.29;89.56;97509.91;5065258;28;20069;-68
2021/05/05 07:02:08;;;;;;;0.30;0.30;;;;;;;7.35;88.49;97508.81;5065687;28;20109;-67
2021/05/05 07:04:33;;;;;;;0.30;0.30;;;;;;;7.33;88.70;97502.88;5065507;28;20358;-69
2021/05/05 07:06:59;;;;;;;0.22;0.22;;;;;;;7.54;88.96;97502.88;5065497;28;20029;-70
2021/05/05 07:09:24;;;;;;;0.30;0.30;;;;;;;7.83;89.47;97500.75;5065537;28;20025;-69
2021/05/05 07:11:49;;;;;;;0.40;0.40;;;;;;;8.11;89.41;97509.03;5065223;28;20436;-67
2021/05/05 07:14:15;;;;;;;0.30;0.30;;;;;;;8.19;87.84;97497.41;5065727;28;20028;-64
2021/05/05 07:16:40;;;;;;;0.30;0.30;;;;;;;8.06;85.86;97504.91;5065619;28;20565;-64
2021/05/05 07:19:05;;;;;;;0.30;0.30;;;;;;;7.94;86.60;97505.44;5065654;28;20048;-65
2021/05/05 07:21:31;;;;;;;0.22;0.22;;;;;;;7.91;86.30;97505.56;5065695;28;20025;-65
2021/05/05 07:23:57;;;;;;;0.30;0.30;;;;;;;7.96;86.13;97502.78;5065516;28;20075;-65
2021/05/05 07:26:23;;;;;;;0.30;0.30;;;;;;;8.01;86.03;97512.03;5065291;28;20025;-66
2021/05/05 07:28:48;;;;;;;0.30;0.30;;;;;;;8.25;87.11;97517.00;5065415;28;20084;-65
2021/05/05 07:31:14;;;;;;;0.20;0.20;;;;;;;8.55;86.62;97515.66;5065805;28;20075;-64
2021/05/05 07:33:39;;;;;;;0.30;0.30;;;;;;;8.78;87.14;97514.59;5065554;28;20025;-65
2021/05/05 07:36:12;;;;;;;0.25;0.25;;;;;;;9.00;86.12;97518.72;5065491;28;20052;-65
2021/05/05 07:47:00;;;;;;;0.30;0.30;;;;;;;9.05;85.39;97532.28;5065175;28;20025;-66
2021/05/05 07:49:22;;;;;;;0.30;0.30;;;;;;;9.02;84.48;97529.00;5065215;28;20043;-67
2021/05/05 07:51:47;;;;;;;0.30;0.30;;;;;;;9.03;84.55;97528.09;5065185;28;20064;-68
2021/05/05 07:54:18;;;;;;;0.30;0.30;;;;;;;9.04;84.09;97528.00;5065016;28;20017;-68
2021/05/05 07:56:43;;;;;;;0.20;0.20;;;;;;;9.12;84.52;97522.47;5064745;28;20039;-67
2021/05/05 07:59:09;;;;;;;0.20;0.20;;;;;;;9.05;82.96;97529.72;5064810;28;20152;-68
2021/05/05 08:01:38;;;;;;;0.30;0.30;;;;;;;8.91;82.95;97520.00;5065035;28;20028;-68
2021/05/05 08:04:05;;;;;;;0.22;0.22;;;;;;;8.85;82.89;97517.72;5064935;28;20021;-68
2021/05/05 08:06:30;;;;;;;0.20;0.20;;;;;;;8.79;83.50;97518.00;5064855;28;20051;-67
2021/05/05 08:08:58;;;;;;;0.45;0.45;;;;;;;8.79;83.56;97523.19;5064497;28;20028;-68
2021/05/05 08:11:24;;;;;;;0.30;0.30;;;;;;;8.86;84.20;97532.34;5064477;28;20037;-67
2021/05/05 08:13:50;;;;;;;0.30;0.30;;;;;;;8.91;84.25;97529.53;5063555;28;20060;-67
2021/05/05 08:16:19;;;;;;;0.30;0.30;;;;;;;8.91;84.66;97532.13;5064932;28;20013;-69
2021/05/05 08:18:46;;;;;;;0.30;0.30;;;;;;;8.91;84.47;97530.34;5064592;28;20025;-68
2021/05/05 08:21:11;;;;;;;0.30;0.30;;;;;;;8.86;83.88;97532.34;5064594;28;20032;-68
2021/05/05 08:23:41;;;;;;;0.30;0.30;;;;;;;8.85;84.24;97533.22;5064673;28;20017;-68
2021/05/05 08:26:06;;;;;;;0.30;0.30;;;;;;;8.86;84.03;97531.50;5064122;28;20056;-68
2021/05/05 08:28:34;;;;;;;0.20;0.20;;;;;;;8.83;84.13;97542.84;5064393;28;20021;-69
2021/05/05 08:30:59;;;;;;;0.30;0.30;;;;;;;8.66;83.96;97535.84;5064390;28;20537;-71
2021/05/05 08:33:25;;;;;;;0.55;0.55;;;;;;;8.50;84.23;97546.06;5064459;28;20035;-68
2021/05/05 08:35:50;;;;;;;0.30;0.30;;;;;;;8.38;84.36;97544.88;5064564;28;20037;-67
2021/05/05 08:38:16;;;;;;;0.30;0.30;;;;;;;8.22;84.11;97544.72;5064399;28;20066;-67
2021/05/05 08:40:41;;;;;;;0.43;0.43;;;;;;;8.04;84.15;97547.22;5064257;28;20096;-67
2021/05/05 08:43:07;;;;;;;0.30;0.30;;;;;;;7.77;84.25;97550.94;5064133;28;20024;-63
2021/05/05 08:45:33;;;;;;;0.20;0.20;;;;;;;7.60;84.38;97553.41;5064006;28;20028;-64
2021/05/05 08:48:05;;;;;;;0.22;0.22;;;;;;;7.44;84.91;97551.47;5063992;28;20027;-65
2021/05/05 08:50:33;;;;;;;0.40;0.40;;;;;;;7.41;85.61;97556.75;5064051;28;20075;-66
2021/05/05 08:52:59;;;;;;;0.30;0.30;;;;;;;7.37;85.89;97550.88;5064062;28;20032;-66
2021/05/05 08:55:26;;;;;;;0.30;0.30;;;;;;;7.42;86.22;97561.88;5063522;28;20032;-66
2021/05/05 08:57:52;;;;;;;0.30;0.30;;;;;;;7.49;86.56;97557.25;5063305;28;20029;-66
2021/05/05 09:00:24;;;;;;;0.30;0.30;;;;;;;7.60;86.63;97562.00;5063337;28;20045;-66
2021/05/05 09:02:50;;;;;;;0.30;0.30;;;;;;;7.76;86.75;97548.44;5063447;28;20132;-67
2021/05/05 09:05:16;;;;;;;0.30;0.30;;;;;;;7.99;86.89;97554.31;5063671;28;20076;-67
2021/05/05 09:07:44;;;;;;;0.30;0.30;;;;;;;8.22;87.04;97563.66;5063881;28;20035;-67
2021/05/05 09:10:14;;;;;;;0.30;0.30;;;;;;;8.44;87.05;97565.25;5063663;28;20104;-68
2021/05/05 09:12:42;;;;;;;0.30;0.30;;;;;;;8.68;87.04;97558.16;5078272;28;20056;-70
2021/05/05 09:15:20;;;;;;;0.30;0.30;;;;;;;8.93;86.98;97551.81;5063558;28;20021;-68
2021/05/05 09:17:49;;;;;;;0.30;0.30;;;;;;;9.12;86.79;97556.09;5063670;28;20025;-68
2021/05/05 09:20:17;;;;;;;0.30;0.30;;;;;;;9.29;86.61;97557.88;5062681;28;20021;-68
2021/05/05 09:22:50;;;;;;;0.30;0.30;;;;;;;9.26;85.57;97552.00;5063548;28;20079;-68
2021/05/05 09:25:20;;;;;;;0.30;0.30;;;;;;;9.06;83.81;97566.75;5063652;28;20044;-68
2021/05/05 09:28:22;;;;;;;0.20;0.20;;;;;;;8.79;83.47;97549.91;5063176;28;20021;-68
2021/05/05 09:31:07;;;;;;;0.30;0.30;;;;;;;8.64;83.08;97546.28;5063582;28;20041;-69
2021/05/05 09:33:34;;;;;;;0.30;0.30;;;;;;;8.65;83.95;97555.72;5063700;28;20032;-68
2021/05/05 09:36:08;;;;;;;0.20;0.20;;;;;;;8.75;84.33;97555.28;5063854;28;20017;-68
2021/05/05 09:38:50;;;;;;;0.47;0.47;;;;;;;8.88;84.03;97556.38;5063130;28;20025;-68
2021/05/05 09:41:23;;;;;;;0.30;0.30;;;;;;;8.97;83.91;97555.09;5061243;28;20051;-69
2021/05/05 09:43:50;;;;;;;0.30;0.30;;;;;;;9.08;83.46;97561.50;5062069;28;20021;-69
2021/05/05 09:46:46;;;;;;;0.30;0.30;;;;;;;9.14;83.64;97567.22;5063317;28;20047;-70
2021/05/05 09:49:37;;;;;;;0.30;0.30;;;;;;;9.09;82.66;97561.44;5063112;28;20082;-69
2021/05/05 09:52:05;;;;;;;0.20;0.20;;;;;;;9.08;83.71;97554.59;5060375;28;20044;-68
2021/05/05 09:54:52;;;;;;;0.20;0.20;;;;;;;9.11;83.12;97569.13;5063326;28;20075;-69
2021/05/05 09:57:18;;;;;;;0.30;0.30;;;;;;;9.18;83.45;97565.34;5062564;28;20033;-69
2021/05/05 10:00:07;;;;;;;0.30;0.30;;;;;;;9.45;83.91;97562.31;5063044;28;20072;-69
2021/05/05 10:02:47;;;;;;;0.30;0.30;;;;;;;9.78;83.81;97565.84;5063231;28;20036;-69
2021/05/05 10:05:14;;;;;;;0.30;0.30;;;;;;;9.91;82.62;97566.91;5062923;28;20136;-69
2021/05/05 10:07:55;;;;;;;0.30;0.30;;;;;;;10.01;82.56;97564.69;5062912;28;20021;-69
2021/05/05 10:10:24;;;;;;;0.20;0.20;;;;;;;10.20;82.35;97562.88;5062513;28;20029;-66
2021/05/05 10:12:51;;;;;;;0.20;0.20;;;;;;;10.72;82.06;97579.19;5062784;28;20107;-66
2021/05/05 10:15:17;;;;;;;0.20;0.20;;;;;;;11.11;80.40;97564.91;5062887;28;20017;-67
2021/05/05 10:17:48;;;;;;;0.20;0.20;;;;;;;11.92;80.55;97564.63;5062839;28;20595;-65
2021/05/05 10:20:19;;;;;;;0.20;0.20;;;;;;;12.77;79.08;97563.00;5063160;28;20028;-64
2021/05/05 10:22:45;;;;;;;0.30;0.30;;;;;;;12.84;75.52;97564.25;5062778;28;20084;-66
2021/05/05 10:25:15;;;;;;;0.30;0.30;;;;;;;12.46;74.88;97567.53;5063039;28;20029;-66
2021/05/05 10:27:41;;;;;;;0.20;0.20;;;;;;;12.09;76.10;97565.41;5062237;28;20116;-65
2021/05/05 10:30:08;;;;;;;0.22;0.22;;;;;;;11.86;76.30;97583.19;5062970;28;20021;-66
2021/05/05 10:32:34;;;;;;;0.20;0.20;;;;;;;11.42;74.97;97579.66;5065156;28;20052;-65
2021/05/05 10:34:59;;;;;;;0.40;0.40;;;;;;;11.14;75.76;97585.50;5066765;28;20067;-66
2021/05/05 10:37:46;;;;;;;0.20;0.20;;;;;;;10.82;75.34;97582.94;5066386;28;20025;-66
2021/05/05 10:40:17;;;;;;;0.20;0.20;;;;;;;10.62;76.53;97589.22;5066631;28;20086;-66
2021/05/05 10:42:57;;;;;;;0.20;0.20;;;;;;;10.51;76.39;97588.03;5065992;28;20036;-65
2021/05/05 10:45:29;;;;;;;0.20;0.20;;;;;;;10.56;77.36;97592.97;5066012;28;20029;-65
2021/05/05 10:48:13;;;;;;;0.20;0.20;;;;;;;10.72;76.51;97594.75;5065933;28;20510;-65
2021/05/05 10:50:47;;;;;;;0.30;0.30;;;;;;;11.01;77.19;97610.47;5066490;28;20092;-66
2021/05/05 10:53:13;;;;;;;0.20;0.20;;;;;;;11.13;76.90;97594.19;5066123;28;20489;-66
2021/05/05 10:55:43;;;;;;;0.30;0.30;;;;;;;11.15;75.90;97602.75;5065966;28;20081;-66
2021/05/05 10:58:24;;;;;;;0.30;0.30;;;;;;;11.00;75.20;97601.00;5065502;28;20025;-65
2021/05/05 11:01:04;;;;;;;0.20;0.20;;;;;;;10.72;74.11;97602.53;5066021;28;20028;-66
2021/05/05 11:03:42;;;;;;;1.08;1.00;;;;;;;10.48;74.95;97603.75;5064692;28;20088;-66
2021/05/05 11:06:29;;;;;;;0.20;0.20;;;;;;;10.47;74.73;97601.25;5065992;28;20021;-66
2021/05/05 11:09:19;;;;;;;0.22;0.22;;;;;;;10.43;74.07;97604.91;5065688;28;20037;-66
2021/05/05 11:11:52;;;;;;;0.30;0.30;;;;;;;10.35;74.59;97603.53;5058947;28;20520;-66
2021/05/05 11:14:24;;;;;;;0.30;0.30;;;;;;;10.34;74.60;97601.88;5065751;28;20051;-66
2021/05/05 11:16:57;;;;;;;0.30;0.30;;;;;;;10.27;73.91;97597.94;5065855;28;20033;-65
2021/05/05 11:19:40;;;;;;;0.20;0.20;;;;;;;10.02;73.79;97607.81;5065815;28;20056;-65
2021/05/05 11:22:07;;;;;;;0.20;0.20;;;;;;;9.73;73.83;97606.72;5065659;28;20025;-65
2021/05/05 11:24:37;;;;;;;0.20;0.20;;;;;;;9.55;75.12;97607.53;5065616;28;20055;-65
2021/05/05 11:27:09;;;;;;;0.30;0.30;;;;;;;9.49;75.00;97622.56;5065171;28;20163;-66
2021/05/05 11:29:53;;;;;;;0.30;0.30;;;;;;;9.33;75.26;97610.34;5065657;28;20116;-67
2021/05/05 11:32:18;;;;;;;0.30;0.30;;;;;;;9.22;76.12;97605.69;5065589;28;20252;-66
2021/05/05 11:34:46;;;;;;;0.30;0.30;;;;;;;9.25;77.16;97622.84;5065491;28;20024;-66
2021/05/05 11:37:14;;;;;;;0.20;0.20;;;;;;;9.36;75.97;97625.72;5065301;28;20425;-65
2021/05/05 11:39:42;;;;;;;0.30;0.30;;;;;;;9.30;76.16;97620.84;5065370;28;20029;-65
2021/05/05 11:42:11;;;;;;;0.30;0.30;;;;;;;9.32;76.07;97623.34;5065034;28;20134;-65
2021/05/05 11:44:52;;;;;;;0.45;0.45;;;;;;;9.33;75.87;97625.88;5079578;28;20060;-65
2021/05/05 11:47:20;;;;;;;0.30;0.30;;;;;;;9.38;75.89;97639.44;5065135;28;20067;-65
2021/05/05 11:49:52;;;;;;;0.28;0.28;;;;;;;9.49;76.81;97631.16;5065174;28;20047;-64
2021/05/05 11:52:27;;;;;;;0.20;0.20;;;;;;;9.66;75.35;97632.91;5065305;28;20021;-65